createdAt,value
2018-01-03T00:00:48.348Z,4.53
2018-01-03T00:03:15.820Z,4.37
2018-01-03T00:05:43.289Z,3.23
2018-01-03T00:08:10.760Z,2.40
2018-01-03T00:10:38.999Z,3.13
2018-01-03T00:13:06.470Z,3.30
2018-01-03T00:15:33.941Z,4.40
2018-01-03T00:18:02.192Z,5.80
2018-01-03T00:20:29.765Z,2.37
2018-01-03T00:22:57.999Z,2.30
2018-01-03T00:25:25.460Z,3.80
2018-01-03T00:27:52.936Z,2.83
2018-01-03T00:30:21.178Z,2.43
2018-01-03T00:32:48.774Z,3.47
2018-01-03T00:35:16.216Z,3.10
2018-01-03T00:37:43.794Z,3.10
2018-01-03T00:40:12.054Z,3.23
2018-01-03T00:42:39.515Z,3.57
2018-01-03T00:45:06.988Z,1.37
2018-01-03T00:47:35.227Z,2.10
2018-01-03T00:50:02.726Z,1.70
2018-01-03T00:52:30.938Z,2.00
2018-01-03T00:54:58.390Z,2.20
2018-01-03T00:57:25.992Z,1.40
2018-01-03T00:59:53.462Z,4.30
2018-01-03T01:02:21.697Z,1.90
2018-01-03T01:04:49.162Z,3.07
2018-01-03T01:07:16.731Z,1.87
2018-01-03T01:09:44.217Z,1.97
2018-01-03T01:12:11.759Z,2.23
2018-01-03T01:14:40.068Z,1.57
2018-01-03T01:17:07.536Z,2.30
2018-01-03T01:19:34.987Z,1.77
2018-01-03T01:22:02.579Z,2.30
2018-01-03T01:24:30.048Z,2.83
2018-01-03T01:26:57.535Z,3.30
2018-01-03T01:29:25.008Z,1.23
2018-01-03T01:31:52.489Z,1.07
2018-01-03T01:34:19.971Z,1.60
2018-01-03T01:36:47.441Z,1.73
2018-01-03T01:39:15.678Z,1.77
2018-01-03T01:41:43.134Z,1.13
2018-01-03T01:44:10.620Z,1.50
2018-01-03T01:46:38.097Z,1.80
2018-01-03T01:49:06.476Z,1.67
2018-01-03T01:51:33.974Z,2.10
2018-01-03T01:54:01.440Z,0.83
2018-01-03T01:56:29.680Z,4.60
2018-01-03T01:58:57.158Z,1.80
2018-01-03T02:01:24.615Z,1.40
2018-01-03T02:03:52.098Z,2.17
2018-01-03T02:06:30.394Z,1.23
2018-01-03T02:08:57.907Z,1.97
2018-01-03T02:11:25.377Z,1.20
2018-01-03T02:13:52.839Z,1.43
2018-01-03T02:16:20.334Z,4.20
2018-01-03T02:18:47.946Z,1.77
2018-01-03T02:21:15.411Z,1.23
2018-01-03T02:23:43.002Z,2.30
2018-01-03T02:26:10.496Z,2.20
2018-01-03T02:28:37.942Z,1.20
2018-01-03T02:31:05.454Z,5.43
2018-01-03T02:33:32.943Z,1.40
2018-01-03T02:36:01.188Z,1.60
2018-01-03T02:38:32.394Z,1.50
2018-01-03T02:40:59.887Z,2.90
2018-01-03T02:43:27.384Z,1.20
2018-01-03T02:45:55.603Z,2.07
2018-01-03T02:48:23.089Z,1.80
2018-01-03T02:51:01.301Z,3.60
2018-01-03T02:53:28.766Z,2.10
2018-01-03T02:55:57.009Z,1.53
2018-01-03T02:58:24.478Z,1.40
2018-01-03T03:00:52.115Z,1.50
2018-01-03T03:03:19.642Z,5.07
2018-01-03T03:05:47.152Z,5.53
2018-01-03T03:08:14.712Z,0.97
2018-01-03T03:10:42.178Z,1.27
2018-01-03T03:13:09.647Z,1.80
2018-01-03T03:15:37.156Z,2.57
2018-01-03T03:18:04.689Z,1.00
2018-01-03T03:20:32.144Z,2.53
2018-01-03T03:22:59.635Z,1.70
2018-01-03T03:25:27.204Z,2.23
2018-01-03T03:27:54.768Z,2.00
2018-01-03T03:30:22.252Z,1.80
2018-01-03T03:32:49.784Z,1.00
2018-01-03T03:35:18.009Z,1.20
2018-01-03T03:37:45.622Z,1.27
2018-01-03T03:40:13.860Z,1.10
2018-01-03T03:42:41.341Z,1.83
2018-01-03T03:45:08.842Z,2.00
2018-01-03T03:47:36.307Z,1.37
2018-01-03T03:50:03.764Z,1.80
2018-01-03T03:52:31.283Z,2.10
2018-01-03T03:54:58.714Z,1.90
2018-01-03T03:57:26.204Z,1.37
2018-01-03T03:59:53.687Z,1.10
2018-01-03T04:02:21.150Z,1.60
2018-01-03T04:04:48.610Z,1.90
2018-01-03T04:07:16.067Z,1.03
2018-01-03T04:09:43.560Z,1.10
2018-01-03T04:12:11.018Z,0.90
2018-01-03T04:14:38.512Z,1.70
2018-01-03T04:17:05.994Z,1.87
2018-01-03T04:19:33.468Z,0.70
2018-01-03T04:22:01.053Z,1.53
2018-01-03T04:24:29.269Z,0.80
2018-01-03T04:26:56.714Z,1.00
2018-01-03T04:29:24.172Z,0.80
2018-01-03T04:31:51.636Z,2.17
2018-01-03T04:34:19.116Z,0.70
2018-01-03T04:36:46.604Z,1.10
2018-01-03T04:39:14.842Z,1.30
2018-01-03T04:41:42.315Z,1.60
2018-01-03T04:44:09.778Z,1.13
2018-01-03T04:46:38.016Z,1.63
2018-01-03T04:49:05.505Z,0.80
2018-01-03T04:51:32.995Z,0.70
2018-01-03T04:54:00.511Z,0.97
2018-01-03T04:56:28.800Z,1.17
2018-01-03T04:58:56.278Z,0.70
2018-01-03T05:01:23.727Z,1.37
2018-01-03T05:03:51.281Z,0.93
2018-01-03T05:06:19.553Z,0.93
2018-01-03T05:08:47.778Z,0.80
2018-01-03T05:11:15.256Z,0.90
2018-01-03T05:13:42.724Z,0.77
2018-01-03T05:16:10.972Z,0.80
2018-01-03T05:18:38.430Z,0.70
2018-01-03T05:21:05.921Z,0.63
2018-01-03T05:23:34.147Z,0.70
2018-01-03T05:26:01.615Z,0.80
2018-01-03T05:28:29.111Z,0.80
2018-01-03T05:30:57.336Z,0.80
2018-01-03T05:33:24.792Z,1.23
2018-01-03T05:35:52.300Z,1.20
2018-01-03T05:38:20.524Z,0.63
2018-01-03T05:40:48.008Z,1.17
2018-01-03T05:43:15.500Z,1.77
2018-01-03T05:45:42.960Z,0.80
2018-01-03T05:48:10.420Z,1.03
2018-01-03T05:50:37.902Z,0.70
2018-01-03T05:53:05.370Z,0.77
2018-01-03T05:55:32.940Z,1.00
2018-01-03T05:58:00.395Z,0.80
2018-01-03T06:00:28.634Z,0.93
2018-01-03T06:02:56.147Z,0.77
2018-01-03T06:05:24.365Z,0.93
2018-01-03T06:07:51.856Z,0.93
2018-01-03T06:10:19.322Z,0.70
2018-01-03T06:12:47.636Z,2.90
2018-01-03T06:15:15.095Z,1.10
2018-01-03T06:17:42.556Z,0.83
2018-01-03T06:20:10.159Z,0.60
2018-01-03T06:22:37.722Z,0.80
2018-01-03T06:25:05.956Z,1.00
2018-01-03T06:27:33.450Z,0.97
2018-01-03T06:30:00.908Z,1.33
2018-01-03T06:32:28.385Z,0.83
2018-01-03T06:34:56.603Z,0.90
2018-01-03T06:37:24.081Z,1.97
2018-01-03T06:39:51.584Z,2.50
2018-01-03T06:42:19.041Z,1.00
2018-01-03T06:44:46.517Z,1.27
2018-01-03T06:47:14.008Z,1.00
2018-01-03T06:49:41.468Z,0.90
2018-01-03T06:52:08.953Z,0.80
2018-01-03T06:54:37.190Z,0.90
2018-01-03T06:57:04.630Z,0.73
2018-01-03T06:59:32.127Z,0.70
2018-01-03T07:02:00.349Z,0.80
2018-01-03T07:04:27.823Z,1.23
2018-01-03T07:06:55.306Z,1.10
2018-01-03T07:09:23.525Z,1.07
2018-01-03T07:11:51.017Z,1.10
2018-01-03T07:14:18.474Z,2.60
2018-01-03T07:16:45.935Z,0.80
2018-01-03T07:19:14.215Z,0.93
2018-01-03T07:21:41.667Z,0.90
2018-01-03T07:24:09.925Z,0.80
2018-01-03T07:26:37.405Z,0.70
2018-01-03T07:29:05.654Z,1.17
2018-01-03T07:31:33.134Z,0.90
2018-01-03T07:34:00.610Z,0.90
2018-01-03T07:36:28.156Z,1.20
2018-01-03T07:38:56.405Z,1.47
2018-01-03T07:41:23.875Z,0.60
2018-01-03T07:43:51.314Z,1.17
2018-01-03T07:46:18.784Z,1.07
2018-01-03T07:48:46.858Z,1.23
2018-01-03T07:51:15.088Z,1.60
2018-01-03T07:53:42.569Z,1.43
2018-01-03T07:56:10.015Z,0.80
2018-01-03T07:58:37.488Z,1.30
2018-01-03T08:01:04.969Z,1.10
2018-01-03T08:03:33.275Z,1.47
2018-01-03T08:06:00.778Z,2.60
2018-01-03T08:08:28.259Z,1.23
2018-01-03T08:10:56.272Z,0.93
2018-01-03T08:13:23.769Z,1.10
2018-01-03T08:15:52.014Z,0.90
2018-01-03T08:18:19.468Z,1.30
2018-01-03T08:20:46.961Z,0.93
2018-01-03T08:23:15.193Z,1.90
2018-01-03T08:25:42.674Z,1.13
2018-01-03T08:28:10.232Z,1.17
2018-01-03T08:30:37.718Z,1.10
2018-01-03T08:33:05.190Z,0.90
2018-01-03T08:35:32.676Z,1.70
2018-01-03T08:38:00.130Z,0.80
2018-01-03T08:40:27.580Z,0.60
2018-01-03T08:42:55.058Z,0.53
2018-01-03T08:45:22.544Z,0.70
2018-01-03T08:47:50.814Z,0.60
2018-01-03T08:50:19.173Z,0.60
2018-01-03T08:52:46.661Z,0.60
2018-01-03T08:55:14.179Z,1.60
2018-01-03T08:57:41.642Z,1.07
2018-01-03T09:00:09.112Z,0.57
2018-01-03T09:02:37.350Z,0.80
2018-01-03T09:05:04.872Z,0.83
2018-01-03T09:07:32.352Z,2.10
2018-01-03T09:09:59.810Z,1.00
2018-01-03T09:12:27.270Z,0.80
2018-01-03T09:14:54.722Z,1.07
2018-01-03T09:17:22.225Z,1.07
2018-01-03T09:19:50.472Z,0.60
2018-01-03T09:22:18.042Z,0.60
2018-01-03T09:24:45.500Z,1.03
2018-01-03T09:27:13.759Z,1.00
2018-01-03T09:29:41.242Z,1.77
2018-01-03T09:32:09.498Z,2.17
2018-01-03T09:34:37.049Z,3.73
2018-01-03T09:37:04.524Z,2.07
2018-01-03T09:39:32.752Z,1.33
2018-01-03T09:42:00.208Z,3.20
2018-01-03T09:44:27.685Z,1.97
2018-01-03T09:46:55.153Z,0.83
2018-01-03T09:49:22.622Z,0.90
2018-01-03T09:51:50.891Z,4.63
2018-01-03T09:54:19.102Z,1.00
2018-01-03T09:56:46.593Z,1.73
2018-01-03T09:59:14.055Z,1.30
2018-01-03T10:01:41.520Z,1.60
2018-01-03T10:04:09.003Z,0.70
2018-01-03T10:06:37.249Z,0.80
2018-01-03T10:09:04.708Z,0.80
2018-01-03T10:11:32.250Z,0.80
2018-01-03T10:13:59.737Z,2.30
2018-01-03T10:16:28.008Z,0.70
2018-01-03T10:18:55.456Z,0.93
2018-01-03T10:21:23.720Z,0.80
2018-01-03T10:23:51.224Z,0.90
2018-01-03T10:26:18.688Z,0.90
2018-01-03T10:28:46.163Z,1.50
2018-01-03T10:31:13.661Z,2.70
2018-01-03T10:33:41.892Z,4.00
2018-01-03T10:36:09.369Z,0.93
2018-01-03T10:38:36.810Z,2.00
2018-01-03T10:41:04.285Z,0.87
2018-01-03T10:43:31.733Z,2.50
2018-01-03T10:45:59.188Z,1.53
2018-01-03T10:48:26.652Z,1.23
2018-01-03T10:50:54.103Z,2.17
2018-01-03T10:53:21.584Z,1.90
2018-01-03T10:55:49.894Z,1.10
2018-01-03T10:58:17.342Z,2.60
2018-01-03T11:00:44.810Z,3.10
2018-01-03T11:03:12.355Z,2.33
2018-01-03T11:05:39.832Z,1.00
2018-01-03T11:08:07.287Z,0.90
2018-01-03T11:10:34.771Z,0.80
2018-01-03T11:13:02.266Z,0.90
2018-01-03T11:15:29.742Z,1.53
2018-01-03T11:17:57.196Z,0.80
2018-01-03T11:20:24.667Z,0.73
2018-01-03T11:22:52.165Z,0.77
2018-01-03T11:25:19.624Z,1.97
2018-01-03T11:27:47.870Z,1.07
2018-01-03T11:30:15.362Z,0.80
2018-01-03T11:32:43.612Z,1.30
2018-01-03T11:35:11.066Z,1.93
2018-01-03T11:37:38.630Z,1.40
2018-01-03T11:40:06.166Z,1.33
2018-01-03T11:42:33.646Z,1.10
2018-01-03T11:45:01.117Z,1.27
2018-01-03T11:47:29.356Z,1.13
2018-01-03T11:49:56.820Z,1.03
2018-01-03T11:52:24.304Z,0.87
2018-01-03T11:54:52.530Z,1.67
2018-01-03T11:57:19.999Z,1.43
2018-01-03T11:59:47.480Z,2.10
2018-01-03T12:02:15.691Z,1.90
2018-01-03T12:04:44.018Z,1.90
2018-01-03T12:07:11.505Z,1.30
2018-01-03T12:09:38.991Z,1.47
2018-01-03T12:12:06.491Z,2.57
2018-01-03T12:14:33.971Z,1.10
2018-01-03T12:17:02.202Z,1.67
2018-01-03T12:19:29.646Z,0.73
2018-01-03T12:21:57.111Z,0.97
2018-01-03T12:24:24.585Z,1.00
2018-01-03T12:26:52.059Z,0.70
2018-01-03T12:29:20.288Z,1.03
2018-01-03T12:31:47.757Z,1.50
2018-01-03T12:34:15.232Z,1.20
2018-01-03T12:36:43.464Z,0.70
2018-01-03T12:39:10.947Z,0.83
2018-01-03T12:41:38.512Z,0.70
2018-01-03T12:44:06.802Z,0.70
2018-01-03T12:46:35.028Z,1.00
2018-01-03T12:49:02.495Z,1.03
2018-01-03T12:51:29.959Z,1.00
2018-01-03T12:53:57.444Z,1.10
2018-01-03T12:56:25.672Z,1.30
2018-01-03T12:58:53.128Z,0.70
2018-01-03T13:01:20.601Z,0.83
2018-01-03T13:03:48.070Z,0.80
2018-01-03T13:06:15.729Z,1.33
2018-01-03T13:08:43.230Z,1.70
2018-01-03T13:11:10.680Z,1.47
2018-01-03T13:13:38.160Z,1.33
2018-01-03T13:16:05.598Z,0.70
2018-01-03T13:18:33.063Z,1.00
2018-01-03T13:21:00.510Z,1.90
2018-01-03T13:23:27.970Z,1.63
2018-01-03T13:25:55.458Z,4.70
2018-01-03T13:28:23.032Z,1.30
2018-01-03T13:30:50.587Z,3.37
2018-01-03T13:33:18.068Z,1.43
2018-01-03T13:35:46.338Z,1.20
2018-01-03T13:38:14.574Z,1.10
2018-01-03T13:40:42.058Z,2.20
2018-01-03T13:43:10.296Z,2.13
2018-01-03T13:45:37.769Z,2.87
2018-01-03T13:48:05.224Z,1.50
2018-01-03T13:50:32.723Z,2.80
2018-01-03T13:53:00.199Z,5.20
2018-01-03T13:55:27.718Z,1.47
2018-01-03T13:57:55.232Z,1.30
2018-01-03T14:00:22.687Z,1.33
2018-01-03T14:02:50.154Z,1.00
2018-01-03T14:05:17.628Z,1.20
2018-01-03T14:07:45.173Z,1.23
2018-01-03T14:10:12.667Z,2.47
2018-01-03T14:12:40.901Z,2.30
2018-01-03T14:15:08.408Z,0.87
2018-01-03T14:17:35.878Z,1.57
2018-01-03T14:20:04.182Z,1.17
2018-01-03T14:22:31.657Z,1.50
2018-01-03T14:24:59.112Z,2.50
2018-01-03T14:27:27.394Z,1.20
2018-01-03T14:29:54.879Z,1.17
2018-01-03T14:32:22.341Z,1.83
2018-01-03T14:34:49.824Z,2.07
2018-01-03T14:37:17.334Z,3.30
2018-01-03T14:39:45.560Z,1.00
2018-01-03T14:42:13.024Z,2.10
2018-01-03T14:44:40.482Z,1.30
2018-01-03T14:47:07.951Z,1.10
2018-01-03T14:49:35.434Z,1.57
2018-01-03T14:52:03.652Z,2.07
2018-01-03T14:54:31.116Z,3.83
2018-01-03T14:56:58.582Z,2.73
2018-01-03T14:59:26.148Z,1.67
2018-01-03T15:01:53.604Z,1.53
2018-01-03T15:04:21.100Z,2.03
2018-01-03T15:06:48.561Z,1.30
2018-01-03T15:09:16.026Z,3.20
2018-01-03T15:11:43.545Z,6.77
2018-01-03T15:14:11.795Z,3.67
2018-01-03T15:16:39.267Z,2.70
2018-01-03T15:19:06.732Z,1.70
2018-01-03T15:21:34.974Z,0.90
2018-01-03T15:24:02.595Z,1.97
2018-01-03T15:26:30.067Z,1.17
2018-01-03T15:28:57.523Z,3.23
2018-01-03T15:31:24.987Z,4.50
2018-01-03T15:33:52.473Z,1.43
2018-01-03T15:36:19.939Z,4.93
2018-01-03T15:38:48.176Z,4.57
2018-01-03T15:41:15.712Z,2.27
2018-01-03T15:43:43.173Z,5.27
2018-01-03T15:46:10.649Z,1.30
2018-01-03T15:48:38.110Z,2.23
2018-01-03T15:51:05.580Z,1.13
2018-01-03T15:53:33.047Z,3.00
2018-01-03T15:56:01.271Z,2.03
2018-01-03T15:58:29.589Z,2.23
2018-01-03T16:00:57.055Z,1.70
2018-01-03T16:03:25.281Z,2.77
2018-01-03T16:05:52.761Z,1.13
2018-01-03T16:08:20.212Z,3.37
2018-01-03T16:10:47.688Z,3.80
2018-01-03T16:13:15.202Z,2.67
2018-01-03T16:15:42.697Z,2.90
2018-01-03T16:18:10.173Z,4.10
2018-01-03T16:20:38.419Z,10.07
2018-01-03T16:23:05.906Z,1.63
2018-01-03T16:25:33.446Z,1.70
2018-01-03T16:28:01.003Z,1.60
2018-01-03T16:30:29.269Z,1.50
2018-01-03T16:32:56.726Z,3.40
2018-01-03T16:35:24.203Z,2.47
2018-01-03T16:37:53.226Z,3.70
2018-01-03T16:40:20.684Z,3.03
2018-01-03T16:42:48.173Z,3.70
2018-01-03T16:45:15.653Z,3.13
2018-01-03T16:47:43.883Z,4.10
2018-01-03T16:50:11.322Z,4.53
2018-01-03T16:52:44.485Z,4.87
2018-01-03T16:55:11.978Z,2.57
2018-01-03T16:57:39.508Z,5.63
2018-01-03T17:00:06.970Z,4.63
2018-01-03T17:02:34.415Z,1.70
2018-01-03T17:05:01.906Z,5.27
2018-01-03T17:07:29.442Z,4.50
2018-01-03T17:09:56.894Z,2.33
2018-01-03T17:12:24.362Z,2.90
2018-01-03T17:14:51.824Z,2.90
2018-01-03T17:17:19.320Z,5.07
2018-01-03T17:19:46.827Z,4.90
2018-01-03T17:22:14.278Z,6.00
2018-01-03T17:24:41.788Z,4.97
2018-01-03T17:27:09.331Z,3.47
2018-01-03T17:29:36.788Z,3.40
2018-01-03T17:32:04.312Z,6.30
2018-01-03T17:34:31.787Z,2.33
2018-01-03T17:36:59.244Z,4.43
2018-01-03T17:39:26.724Z,6.50
2018-01-03T17:41:54.188Z,5.03
2018-01-03T17:44:22.560Z,4.80
2018-01-03T17:46:50.051Z,4.90
2018-01-03T17:49:17.498Z,6.70
2018-01-03T17:51:44.981Z,4.27
2018-01-03T17:54:12.438Z,3.40
2018-01-03T17:56:39.904Z,3.77
2018-01-03T17:59:07.398Z,2.77
2018-01-03T18:01:35.637Z,4.30
2018-01-03T18:04:03.124Z,3.70
2018-01-03T18:06:30.603Z,6.10
2018-01-03T18:08:58.853Z,5.00
2018-01-03T18:11:26.318Z,3.73
2018-01-03T18:13:54.544Z,2.90
2018-01-03T18:16:22.022Z,4.93
2018-01-03T18:18:49.502Z,5.80
2018-01-03T18:21:16.985Z,6.90
2018-01-03T18:23:44.495Z,6.57
2018-01-03T18:26:11.972Z,6.87
2018-01-03T18:28:40.226Z,8.90
2018-01-03T18:31:07.662Z,7.40
2018-01-03T18:33:35.126Z,3.93
2018-01-03T18:36:02.591Z,5.43
2018-01-03T18:38:30.060Z,7.93
2018-01-03T18:40:57.527Z,7.40
2018-01-03T18:43:25.768Z,7.93
2018-01-03T18:45:53.266Z,6.20
2018-01-03T18:48:21.488Z,8.60
2018-01-03T18:50:48.930Z,5.27
2018-01-03T18:53:16.423Z,7.00
2018-01-03T18:55:43.916Z,7.10
2018-01-03T18:58:11.388Z,11.90
2018-01-03T19:00:38.851Z,4.00
2018-01-03T19:03:06.346Z,6.20
2018-01-03T19:05:33.821Z,6.83
2018-01-03T19:08:02.044Z,6.70
2018-01-03T19:10:29.584Z,7.53
2018-01-03T19:12:57.037Z,4.47
2018-01-03T19:15:24.528Z,11.07
2018-01-03T19:17:51.985Z,2.40
2018-01-03T19:20:19.468Z,4.40
2018-01-03T19:22:46.967Z,6.53
2018-01-03T19:25:14.450Z,6.07
2018-01-03T19:27:41.942Z,5.03
2018-01-03T19:30:10.233Z,4.13
2018-01-03T19:32:37.732Z,3.70
2018-01-03T19:35:05.200Z,4.40
2018-01-03T19:37:32.780Z,7.77
2018-01-03T19:40:01.016Z,3.87
2018-01-03T19:42:28.472Z,4.43
2018-01-03T19:44:55.975Z,5.13
2018-01-03T19:47:24.196Z,6.23
2018-01-03T19:49:51.652Z,3.80
2018-01-03T19:52:19.196Z,4.53
2018-01-03T19:54:46.638Z,6.00
2018-01-03T19:57:14.116Z,6.70
2018-01-03T19:59:41.576Z,7.40
2018-01-03T20:02:09.049Z,3.87
2018-01-03T20:04:36.514Z,2.87
2018-01-03T20:07:03.963Z,6.20
2018-01-03T20:09:31.492Z,3.83
2018-01-03T20:11:58.947Z,5.67
2018-01-03T20:14:26.440Z,4.63
2018-01-03T20:16:54.008Z,5.30
2018-01-03T20:19:21.474Z,4.23
2018-01-03T20:21:49.722Z,4.20
2018-01-03T20:24:17.167Z,3.40
2018-01-03T20:26:44.659Z,2.70
2018-01-03T20:29:12.870Z,5.37
2018-01-03T20:31:40.352Z,4.43
2018-01-03T20:34:07.815Z,4.97
2018-01-03T20:36:35.388Z,6.07
2018-01-03T20:39:02.869Z,6.30
2018-01-03T20:41:31.100Z,3.50
2018-01-03T20:43:58.595Z,4.53
2018-01-03T20:46:26.815Z,7.67
2018-01-03T20:48:54.310Z,3.90
2018-01-03T20:51:22.560Z,5.03
2018-01-03T20:53:50.037Z,2.17
2018-01-03T20:56:17.512Z,11.40
2018-01-03T20:58:45.766Z,6.73
2018-01-03T21:01:13.252Z,5.30
2018-01-03T21:03:40.731Z,9.03
2018-01-03T21:06:08.183Z,7.30
2018-01-03T21:08:35.706Z,6.00
2018-01-03T21:11:03.910Z,5.80
2018-01-03T21:13:31.408Z,5.70
2018-01-03T21:15:58.905Z,5.27
2018-01-03T21:18:26.366Z,6.40
2018-01-03T21:20:53.837Z,6.10
2018-01-03T21:23:21.294Z,4.83
2018-01-03T21:25:48.844Z,6.30
2018-01-03T21:28:16.417Z,4.63
2018-01-03T21:30:43.906Z,3.40
2018-01-03T21:33:11.376Z,3.77
2018-01-03T21:35:38.913Z,5.03
2018-01-03T21:38:06.404Z,4.80
2018-01-03T21:40:34.630Z,4.80
2018-01-03T21:43:02.084Z,5.80
2018-01-03T21:45:29.594Z,10.60
2018-01-03T21:47:57.828Z,12.77
2018-01-03T21:50:25.308Z,5.27
2018-01-03T21:52:52.842Z,8.90
2018-01-03T21:55:20.426Z,5.93
2018-01-03T21:57:48.639Z,4.40
2018-01-03T22:00:16.122Z,5.67
2018-01-03T22:02:43.576Z,2.13
2018-01-03T22:05:11.086Z,3.90
2018-01-03T22:07:39.361Z,4.17
2018-01-03T22:10:06.837Z,4.40
2018-01-03T22:12:34.320Z,4.70
2018-01-03T22:15:01.785Z,6.73
2018-01-03T22:17:29.236Z,5.50
2018-01-03T22:19:56.738Z,5.50
2018-01-03T22:22:24.942Z,4.63
2018-01-03T22:24:53.408Z,3.03
2018-01-03T22:27:20.912Z,2.67
2018-01-03T22:29:48.371Z,4.63
2018-01-03T22:32:15.828Z,3.97
2018-01-03T22:34:43.308Z,5.70
2018-01-03T22:37:11.526Z,6.70
2018-01-03T22:39:39.024Z,7.07
2018-01-03T22:42:07.299Z,6.57
2018-01-03T22:44:34.767Z,3.07
2018-01-03T22:47:03.112Z,9.03
2018-01-03T22:49:30.577Z,6.87
2018-01-03T22:51:58.032Z,7.30
2018-01-03T22:54:25.508Z,7.10
2018-01-03T22:56:53.738Z,3.83
2018-01-03T22:59:21.206Z,4.57
2018-01-03T23:01:48.694Z,9.00
2018-01-03T23:04:16.898Z,3.40
2018-01-03T23:06:44.418Z,7.60
2018-01-03T23:09:12.627Z,3.50
2018-01-03T23:11:40.145Z,5.23
2018-01-03T23:14:08.383Z,2.70
2018-01-03T23:16:35.853Z,2.80
2018-01-03T23:19:03.351Z,6.20
2018-01-03T23:21:30.830Z,4.53
2018-01-03T23:23:58.380Z,4.67
2018-01-03T23:26:25.844Z,4.17
2018-01-03T23:28:53.316Z,6.60
2018-01-03T23:31:20.785Z,8.27
2018-01-03T23:33:48.241Z,8.33
2018-01-03T23:36:15.712Z,3.90
2018-01-03T23:38:43.213Z,2.83
2018-01-03T23:41:10.739Z,4.80
2018-01-03T23:43:38.949Z,4.13
2018-01-03T23:46:06.427Z,5.70
2018-01-03T23:48:33.894Z,5.70
2018-01-03T23:51:01.342Z,4.50
2018-01-03T23:53:28.912Z,3.50
2018-01-03T23:55:56.481Z,2.17
2018-01-03T23:58:23.954Z,3.73
